sensor_id;sensor_type;location;lat;lon;timestamp;P1;durP1;ratioP1;P2;durP2;ratioP2
52304;SDS011;38248;52.722;6.734;2022-07-05T00:00:35;2.42;;;1.95;;
52304;SDS011;38248;52.722;6.734;2022-07-05T00:03:01;3.97;;;2.25;;
52304;SDS011;38248;52.722;6.734;2022-07-05T00:05:26;2.83;;;2.28;;
52304;SDS011;38248;52.722;6.734;2022-07-05T00:07:52;4.32;;;2.38;;
52304;SDS011;38248;52.722;6.734;2022-07-05T00:10:18;3.15;;;2.42;;
52304;SDS011;38248;52.722;6.734;2022-07-05T00:12:43;4.13;;;2.67;;
52304;SDS011;38248;52.722;6.734;2022-07-05T00:15:09;3.17;;;2.70;;
52304;SDS011;38248;52.722;6.734;2022-07-05T00:17:35;3.00;;;2.70;;
52304;SDS011;38248;52.722;6.734;2022-07-05T00:20:00;2.97;;;2.63;;
52304;SDS011;38248;52.722;6.734;2022-07-05T00:22:27;3.15;;;2.75;;
52304;SDS011;38248;52.722;6.734;2022-07-05T00:24:52;2.88;;;2.63;;
52304;SDS011;38248;52.722;6.734;2022-07-05T00:27:18;3.22;;;2.75;;
52304;SDS011;38248;52.722;6.734;2022-07-05T00:29:44;4.13;;;2.85;;
52304;SDS011;38248;52.722;6.734;2022-07-05T00:32:10;4.60;;;3.03;;
52304;SDS011;38248;52.722;6.734;2022-07-05T00:34:35;3.00;;;2.80;;
52304;SDS011;38248;52.722;6.734;2022-07-05T00:37:01;5.38;;;3.13;;
52304;SDS011;38248;52.722;6.734;2022-07-05T00:39:27;4.80;;;2.78;;
52304;SDS011;38248;52.722;6.734;2022-07-05T00:41:53;3.40;;;3.10;;
52304;SDS011;38248;52.722;6.734;2022-07-05T00:44:26;3.17;;;2.97;;
52304;SDS011;38248;52.722;6.734;2022-07-05T00:46:57;3.95;;;3.30;;
52304;SDS011;38248;52.722;6.734;2022-07-05T00:49:23;3.03;;;2.70;;
52304;SDS011;38248;52.722;6.734;2022-07-05T00:51:48;3.38;;;2.90;;
52304;SDS011;38248;52.722;6.734;2022-07-05T00:54:14;3.20;;;2.90;;
52304;SDS011;38248;52.722;6.734;2022-07-05T00:56:40;3.90;;;3.00;;
52304;SDS011;38248;52.722;6.734;2022-07-05T00:59:06;3.83;;;3.20;;
52304;SDS011;38248;52.722;6.734;2022-07-05T01:01:31;3.65;;;2.75;;
52304;SDS011;38248;52.722;6.734;2022-07-05T01:03:57;3.28;;;2.97;;
52304;SDS011;38248;52.722;6.734;2022-07-05T01:06:22;3.97;;;2.83;;
52304;SDS011;38248;52.722;6.734;2022-07-05T01:08:48;4.00;;;3.13;;
52304;SDS011;38248;52.722;6.734;2022-07-05T01:11:14;3.63;;;3.33;;
52304;SDS011;38248;52.722;6.734;2022-07-05T01:13:40;3.35;;;3.08;;
52304;SDS011;38248;52.722;6.734;2022-07-05T01:16:06;3.50;;;2.97;;
52304;SDS011;38248;52.722;6.734;2022-07-05T01:18:32;3.45;;;3.10;;
52304;SDS011;38248;52.722;6.734;2022-07-05T01:20:58;3.97;;;2.95;;
52304;SDS011;38248;52.722;6.734;2022-07-05T01:23:26;4.03;;;2.17;;
52304;SDS011;38248;52.722;6.734;2022-07-05T01:25:53;3.95;;;3.45;;
52304;SDS011;38248;52.722;6.734;2022-07-05T01:28:19;4.38;;;3.78;;
52304;SDS011;38248;52.722;6.734;2022-07-05T01:30:45;3.13;;;2.78;;
52304;SDS011;38248;52.722;6.734;2022-07-05T01:33:12;3.53;;;3.22;;
52304;SDS011;38248;52.722;6.734;2022-07-05T01:35:40;4.03;;;3.20;;
52304;SDS011;38248;52.722;6.734;2022-07-05T01:38:06;4.40;;;3.80;;
52304;SDS011;38248;52.722;6.734;2022-07-05T01:40:32;4.40;;;3.95;;
52304;SDS011;38248;52.722;6.734;2022-07-05T01:42:58;6.18;;;4.20;;
52304;SDS011;38248;52.722;6.734;2022-07-05T01:45:24;4.55;;;3.53;;
52304;SDS011;38248;52.722;6.734;2022-07-05T01:48:07;4.13;;;3.35;;
52304;SDS011;38248;52.722;6.734;2022-07-05T01:50:41;4.45;;;3.28;;
52304;SDS011;38248;52.722;6.734;2022-07-05T01:53:14;4.43;;;4.03;;
52304;SDS011;38248;52.722;6.734;2022-07-05T01:55:43;7.35;;;4.45;;
52304;SDS011;38248;52.722;6.734;2022-07-05T01:58:09;4.82;;;4.43;;
52304;SDS011;38248;52.722;6.734;2022-07-05T02:00:46;5.13;;;4.72;;
52304;SDS011;38248;52.722;6.734;2022-07-05T02:03:13;5.85;;;5.30;;
52304;SDS011;38248;52.722;6.734;2022-07-05T02:05:41;7.45;;;5.65;;
52304;SDS011;38248;52.722;6.734;2022-07-05T02:08:07;6.97;;;6.03;;
52304;SDS011;38248;52.722;6.734;2022-07-05T02:10:36;6.72;;;5.43;;
52304;SDS011;38248;52.722;6.734;2022-07-05T02:13:03;7.00;;;6.03;;
52304;SDS011;38248;52.722;6.734;2022-07-05T02:15:33;6.55;;;5.82;;
52304;SDS011;38248;52.722;6.734;2022-07-05T02:18:00;6.38;;;5.78;;
52304;SDS011;38248;52.722;6.734;2022-07-05T02:20:27;7.15;;;6.20;;
52304;SDS011;38248;52.722;6.734;2022-07-05T02:22:55;8.10;;;6.10;;
52304;SDS011;38248;52.722;6.734;2022-07-05T02:25:21;8.70;;;6.53;;
52304;SDS011;38248;52.722;6.734;2022-07-05T02:27:47;6.18;;;5.60;;
52304;SDS011;38248;52.722;6.734;2022-07-05T02:30:13;6.50;;;5.82;;
52304;SDS011;38248;52.722;6.734;2022-07-05T02:32:39;6.18;;;5.63;;
52304;SDS011;38248;52.722;6.734;2022-07-05T02:35:05;6.93;;;5.97;;
52304;SDS011;38248;52.722;6.734;2022-07-05T02:37:33;5.95;;;5.32;;
52304;SDS011;38248;52.722;6.734;2022-07-05T02:39:59;6.53;;;5.93;;
52304;SDS011;38248;52.722;6.734;2022-07-05T02:42:25;7.15;;;6.45;;
52304;SDS011;38248;52.722;6.734;2022-07-05T02:44:50;6.78;;;5.40;;
52304;SDS011;38248;52.722;6.734;2022-07-05T02:47:16;5.53;;;5.03;;
52304;SDS011;38248;52.722;6.734;2022-07-05T02:49:41;6.10;;;4.38;;
52304;SDS011;38248;52.722;6.734;2022-07-05T02:52:07;7.20;;;5.45;;
52304;SDS011;38248;52.722;6.734;2022-07-05T02:54:33;7.68;;;4.68;;
52304;SDS011;38248;52.722;6.734;2022-07-05T02:56:59;6.00;;;4.97;;
52304;SDS011;38248;52.722;6.734;2022-07-05T02:59:25;5.32;;;4.70;;
52304;SDS011;38248;52.722;6.734;2022-07-05T03:01:51;7.57;;;5.45;;
52304;SDS011;38248;52.722;6.734;2022-07-05T03:04:16;6.53;;;5.93;;
52304;SDS011;38248;52.722;6.734;2022-07-05T03:06:42;9.30;;;5.90;;
52304;SDS011;38248;52.722;6.734;2022-07-05T03:09:08;8.48;;;5.68;;
52304;SDS011;38248;52.722;6.734;2022-07-05T03:11:34;9.40;;;6.68;;
52304;SDS011;38248;52.722;6.734;2022-07-05T03:13:59;7.60;;;6.90;;
52304;SDS011;38248;52.722;6.734;2022-07-05T03:16:25;8.65;;;6.50;;
52304;SDS011;38248;52.722;6.734;2022-07-05T03:18:51;6.15;;;5.55;;
52304;SDS011;38248;52.722;6.734;2022-07-05T03:21:17;7.45;;;6.72;;
52304;SDS011;38248;52.722;6.734;2022-07-05T03:23:42;7.28;;;6.57;;
52304;SDS011;38248;52.722;6.734;2022-07-05T03:26:08;7.75;;;7.03;;
52304;SDS011;38248;52.722;6.734;2022-07-05T03:28:34;7.55;;;6.85;;
52304;SDS011;38248;52.722;6.734;2022-07-05T03:31:00;7.38;;;6.68;;
52304;SDS011;38248;52.722;6.734;2022-07-05T03:33:26;8.07;;;6.95;;
52304;SDS011;38248;52.722;6.734;2022-07-05T03:35:52;8.13;;;7.32;;
52304;SDS011;38248;52.722;6.734;2022-07-05T03:38:18;9.70;;;7.78;;
52304;SDS011;38248;52.722;6.734;2022-07-05T03:40:44;9.18;;;8.20;;
52304;SDS011;38248;52.722;6.734;2022-07-05T03:43:09;9.07;;;8.18;;
52304;SDS011;38248;52.722;6.734;2022-07-05T03:45:38;9.88;;;8.35;;
52304;SDS011;38248;52.722;6.734;2022-07-05T03:48:04;10.43;;;9.27;;
52304;SDS011;38248;52.722;6.734;2022-07-05T03:50:32;10.70;;;8.93;;
52304;SDS011;38248;52.722;6.734;2022-07-05T03:52:57;11.00;;;8.57;;
52304;SDS011;38248;52.722;6.734;2022-07-05T03:55:23;9.05;;;8.10;;
52304;SDS011;38248;52.722;6.734;2022-07-05T03:57:49;8.77;;;7.88;;
52304;SDS011;38248;52.722;6.734;2022-07-05T04:00:15;9.75;;;8.80;;
52304;SDS011;38248;52.722;6.734;2022-07-05T04:02:40;8.98;;;8.05;;
52304;SDS011;38248;52.722;6.734;2022-07-05T04:05:06;12.98;;;8.63;;
52304;SDS011;38248;52.722;6.734;2022-07-05T04:07:33;8.35;;;7.55;;
52304;SDS011;38248;52.722;6.734;2022-07-05T04:09:58;10.70;;;8.90;;
52304;SDS011;38248;52.722;6.734;2022-07-05T04:12:24;9.13;;;8.25;;
52304;SDS011;38248;52.722;6.734;2022-07-05T04:14:50;11.55;;;8.63;;
52304;SDS011;38248;52.722;6.734;2022-07-05T04:17:16;9.98;;;8.77;;
52304;SDS011;38248;52.722;6.734;2022-07-05T04:19:41;10.68;;;8.43;;
52304;SDS011;38248;52.722;6.734;2022-07-05T04:22:07;12.75;;;9.43;;
52304;SDS011;38248;52.722;6.734;2022-07-05T04:24:33;9.82;;;8.82;;
52304;SDS011;38248;52.722;6.734;2022-07-05T04:27:21;9.52;;;7.70;;
52304;SDS011;38248;52.722;6.734;2022-07-05T04:29:47;9.57;;;8.30;;
52304;SDS011;38248;52.722;6.734;2022-07-05T04:32:12;12.82;;;9.10;;
52304;SDS011;38248;52.722;6.734;2022-07-05T04:34:38;9.15;;;8.25;;
52304;SDS011;38248;52.722;6.734;2022-07-05T04:37:04;8.10;;;7.10;;
52304;SDS011;38248;52.722;6.734;2022-07-05T04:39:29;10.13;;;8.07;;
52304;SDS011;38248;52.722;6.734;2022-07-05T04:41:55;8.48;;;7.63;;
52304;SDS011;38248;52.722;6.734;2022-07-05T04:44:20;8.75;;;7.85;;
52304;SDS011;38248;52.722;6.734;2022-07-05T04:46:48;9.02;;;7.40;;
52304;SDS011;38248;52.722;6.734;2022-07-05T04:49:14;8.95;;;8.00;;
52304;SDS011;38248;52.722;6.734;2022-07-05T04:51:40;8.60;;;7.80;;
52304;SDS011;38248;52.722;6.734;2022-07-05T04:54:05;9.82;;;7.63;;
52304;SDS011;38248;52.722;6.734;2022-07-05T04:56:31;9.05;;;8.05;;
52304;SDS011;38248;52.722;6.734;2022-07-05T04:58:56;9.60;;;7.72;;
52304;SDS011;38248;52.722;6.734;2022-07-05T05:01:22;8.68;;;7.03;;
52304;SDS011;38248;52.722;6.734;2022-07-05T05:03:47;7.72;;;6.88;;
52304;SDS011;38248;52.722;6.734;2022-07-05T05:06:13;9.02;;;7.03;;
52304;SDS011;38248;52.722;6.734;2022-07-05T05:08:40;7.25;;;6.40;;
52304;SDS011;38248;52.722;6.734;2022-07-05T05:11:06;7.93;;;6.93;;
52304;SDS011;38248;52.722;6.734;2022-07-05T05:13:32;7.50;;;6.80;;
52304;SDS011;38248;52.722;6.734;2022-07-05T05:15:58;8.00;;;7.20;;
52304;SDS011;38248;52.722;6.734;2022-07-05T05:18:24;9.90;;;6.93;;
52304;SDS011;38248;52.722;6.734;2022-07-05T05:20:52;9.50;;;7.88;;
52304;SDS011;38248;52.722;6.734;2022-07-05T05:23:19;7.90;;;7.05;;
52304;SDS011;38248;52.722;6.734;2022-07-05T05:25:48;7.60;;;6.78;;
52304;SDS011;38248;52.722;6.734;2022-07-05T05:28:14;8.75;;;7.57;;
52304;SDS011;38248;52.722;6.734;2022-07-05T05:30:42;9.30;;;7.15;;
52304;SDS011;38248;52.722;6.734;2022-07-05T05:33:08;9.15;;;6.97;;
52304;SDS011;38248;52.722;6.734;2022-07-05T05:35:33;8.13;;;7.25;;
52304;SDS011;38248;52.722;6.734;2022-07-05T05:37:59;7.93;;;6.50;;
52304;SDS011;38248;52.722;6.734;2022-07-05T05:40:25;8.75;;;7.25;;
52304;SDS011;38248;52.722;6.734;2022-07-05T05:42:52;7.82;;;7.00;;
52304;SDS011;38248;52.722;6.734;2022-07-05T05:45:18;7.93;;;6.97;;
52304;SDS011;38248;52.722;6.734;2022-07-05T05:50:11;9.25;;;6.93;;
52304;SDS011;38248;52.722;6.734;2022-07-05T05:52:37;10.82;;;6.88;;
52304;SDS011;38248;52.722;6.734;2022-07-05T05:55:03;11.13;;;7.20;;
52304;SDS011;38248;52.722;6.734;2022-07-05T05:57:31;9.32;;;7.00;;
52304;SDS011;38248;52.722;6.734;2022-07-05T05:59:56;9.40;;;7.43;;
52304;SDS011;38248;52.722;6.734;2022-07-05T06:02:22;10.63;;;7.18;;
52304;SDS011;38248;52.722;6.734;2022-07-05T06:04:48;10.25;;;7.78;;
52304;SDS011;38248;52.722;6.734;2022-07-05T06:07:13;11.10;;;7.10;;
52304;SDS011;38248;52.722;6.734;2022-07-05T06:09:39;7.65;;;6.95;;
52304;SDS011;38248;52.722;6.734;2022-07-05T06:12:04;8.18;;;7.05;;
52304;SDS011;38248;52.722;6.734;2022-07-05T06:14:30;7.53;;;6.80;;
52304;SDS011;38248;52.722;6.734;2022-07-05T06:16:56;7.07;;;6.38;;
52304;SDS011;38248;52.722;6.734;2022-07-05T06:19:21;7.10;;;6.45;;
52304;SDS011;38248;52.722;6.734;2022-07-05T06:21:47;9.10;;;6.85;;
52304;SDS011;38248;52.722;6.734;2022-07-05T06:24:12;7.47;;;6.60;;
52304;SDS011;38248;52.722;6.734;2022-07-05T06:26:38;7.20;;;6.47;;
52304;SDS011;38248;52.722;6.734;2022-07-05T06:29:03;6.38;;;5.65;;
52304;SDS011;38248;52.722;6.734;2022-07-05T06:31:29;6.32;;;5.82;;
52304;SDS011;38248;52.722;6.734;2022-07-05T06:33:54;8.07;;;6.28;;
52304;SDS011;38248;52.722;6.734;2022-07-05T06:36:23;5.10;;;4.68;;
52304;SDS011;38248;52.722;6.734;2022-07-05T06:38:48;6.60;;;5.45;;
52304;SDS011;38248;52.722;6.734;2022-07-05T06:41:14;6.28;;;5.45;;
52304;SDS011;38248;52.722;6.734;2022-07-05T06:43:39;7.55;;;5.57;;
52304;SDS011;38248;52.722;6.734;2022-07-05T06:46:05;4.63;;;4.22;;
52304;SDS011;38248;52.722;6.734;2022-07-05T06:48:30;4.43;;;3.97;;
52304;SDS011;38248;52.722;6.734;2022-07-05T06:50:56;3.97;;;3.58;;
52304;SDS011;38248;52.722;6.734;2022-07-05T06:53:22;3.55;;;2.90;;
52304;SDS011;38248;52.722;6.734;2022-07-05T06:55:47;3.55;;;2.80;;
52304;SDS011;38248;52.722;6.734;2022-07-05T06:58:13;3.45;;;3.15;;
52304;SDS011;38248;52.722;6.734;2022-07-05T07:00:39;3.22;;;2.85;;
52304;SDS011;38248;52.722;6.734;2022-07-05T07:03:06;4.97;;;2.90;;
52304;SDS011;38248;52.722;6.734;2022-07-05T07:05:31;3.90;;;2.97;;
52304;SDS011;38248;52.722;6.734;2022-07-05T07:07:57;4.00;;;2.83;;
52304;SDS011;38248;52.722;6.734;2022-07-05T07:10:41;4.22;;;2.28;;
52304;SDS011;38248;52.722;6.734;2022-07-05T07:13:07;3.03;;;1.70;;
52304;SDS011;38248;52.722;6.734;2022-07-05T07:15:32;3.38;;;2.08;;
52304;SDS011;38248;52.722;6.734;2022-07-05T07:18:02;7.45;;;3.05;;
52304;SDS011;38248;52.722;6.734;2022-07-05T07:20:29;7.45;;;2.72;;
52304;SDS011;38248;52.722;6.734;2022-07-05T07:22:54;3.92;;;1.77;;
52304;SDS011;38248;52.722;6.734;2022-07-05T07:25:20;3.75;;;1.75;;
52304;SDS011;38248;52.722;6.734;2022-07-05T07:27:48;3.50;;;1.63;;
52304;SDS011;38248;52.722;6.734;2022-07-05T07:30:16;2.03;;;1.70;;
52304;SDS011;38248;52.722;6.734;2022-07-05T07:32:46;4.45;;;1.85;;
52304;SDS011;38248;52.722;6.734;2022-07-05T07:35:13;1.40;;;1.30;;
52304;SDS011;38248;52.722;6.734;2022-07-05T07:37:38;2.33;;;1.52;;
52304;SDS011;38248;52.722;6.734;2022-07-05T07:40:05;3.15;;;1.40;;
52304;SDS011;38248;52.722;6.734;2022-07-05T07:42:31;3.35;;;1.15;;
52304;SDS011;38248;52.722;6.734;2022-07-05T07:44:57;1.17;;;0.90;;
52304;SDS011;38248;52.722;6.734;2022-07-05T07:47:35;2.40;;;1.23;;
52304;SDS011;38248;52.722;6.734;2022-07-05T07:50:02;4.22;;;1.02;;
52304;SDS011;38248;52.722;6.734;2022-07-05T07:52:28;2.20;;;1.13;;
52304;SDS011;38248;52.722;6.734;2022-07-05T07:54:55;2.00;;;1.00;;
52304;SDS011;38248;52.722;6.734;2022-07-05T07:57:21;3.33;;;0.80;;
52304;SDS011;38248;52.722;6.734;2022-07-05T07:59:47;3.95;;;1.38;;
52304;SDS011;38248;52.722;6.734;2022-07-05T08:02:12;3.75;;;1.02;;
52304;SDS011;38248;52.722;6.734;2022-07-05T08:04:38;2.67;;;0.60;;
52304;SDS011;38248;52.722;6.734;2022-07-05T08:07:03;3.72;;;0.80;;
52304;SDS011;38248;52.722;6.734;2022-07-05T08:09:29;2.40;;;1.15;;
52304;SDS011;38248;52.722;6.734;2022-07-05T08:11:56;2.08;;;1.00;;
52304;SDS011;38248;52.722;6.734;2022-07-05T08:14:21;3.08;;;1.00;;
52304;SDS011;38248;52.722;6.734;2022-07-05T08:16:47;3.08;;;0.90;;
52304;SDS011;38248;52.722;6.734;2022-07-05T08:19:14;6.85;;;0.98;;
52304;SDS011;38248;52.722;6.734;2022-07-05T08:21:59;1.80;;;0.80;;
52304;SDS011;38248;52.722;6.734;2022-07-05T08:24:26;1.10;;;0.60;;
52304;SDS011;38248;52.722;6.734;2022-07-05T08:26:52;1.50;;;0.47;;
52304;SDS011;38248;52.722;6.734;2022-07-05T08:29:18;3.58;;;0.80;;
52304;SDS011;38248;52.722;6.734;2022-07-05T08:31:45;3.60;;;0.68;;
52304;SDS011;38248;52.722;6.734;2022-07-05T08:34:12;2.92;;;0.60;;
52304;SDS011;38248;52.722;6.734;2022-07-05T08:36:38;3.45;;;0.47;;
52304;SDS011;38248;52.722;6.734;2022-07-05T08:39:06;1.58;;;0.60;;
52304;SDS011;38248;52.722;6.734;2022-07-05T08:41:34;1.63;;;0.50;;
52304;SDS011;38248;52.722;6.734;2022-07-05T08:44:03;2.63;;;0.60;;
52304;SDS011;38248;52.722;6.734;2022-07-05T08:46:30;1.25;;;0.60;;
52304;SDS011;38248;52.722;6.734;2022-07-05T08:48:57;2.97;;;0.45;;
52304;SDS011;38248;52.722;6.734;2022-07-05T08:51:25;2.20;;;0.55;;
52304;SDS011;38248;52.722;6.734;2022-07-05T08:53:53;2.00;;;0.70;;
52304;SDS011;38248;52.722;6.734;2022-07-05T08:56:20;1.45;;;0.50;;
52304;SDS011;38248;52.722;6.734;2022-07-05T08:59:03;1.33;;;0.40;;
52304;SDS011;38248;52.722;6.734;2022-07-05T09:01:28;2.63;;;0.60;;
52304;SDS011;38248;52.722;6.734;2022-07-05T09:03:57;2.35;;;0.77;;
52304;SDS011;38248;52.722;6.734;2022-07-05T09:06:25;1.25;;;0.80;;
52304;SDS011;38248;52.722;6.734;2022-07-05T09:08:54;2.75;;;0.60;;
52304;SDS011;38248;52.722;6.734;2022-07-05T09:11:23;2.85;;;0.60;;
52304;SDS011;38248;52.722;6.734;2022-07-05T09:16:19;1.45;;;0.45;;
52304;SDS011;38248;52.722;6.734;2022-07-05T09:18:45;1.50;;;0.43;;
52304;SDS011;38248;52.722;6.734;2022-07-05T09:21:16;0.50;;;0.40;;
52304;SDS011;38248;52.722;6.734;2022-07-05T09:23:44;1.83;;;0.52;;
52304;SDS011;38248;52.722;6.734;2022-07-05T09:26:31;1.60;;;0.40;;
52304;SDS011;38248;52.722;6.734;2022-07-05T09:28:58;5.60;;;0.98;;
52304;SDS011;38248;52.722;6.734;2022-07-05T09:31:28;1.52;;;0.55;;
52304;SDS011;38248;52.722;6.734;2022-07-05T09:44:37;3.33;;;0.50;;
52304;SDS011;38248;52.722;6.734;2022-07-05T09:47:07;1.35;;;0.47;;
52304;SDS011;38248;52.722;6.734;2022-07-05T09:56:01;1.25;;;0.50;;
52304;SDS011;38248;52.722;6.734;2022-07-05T09:59:23;2.90;;;1.10;;
52304;SDS011;38248;52.722;6.734;2022-07-05T10:05:49;2.45;;;0.40;;
52304;SDS011;38248;52.722;6.734;2022-07-05T10:08:15;1.45;;;0.47;;
52304;SDS011;38248;52.722;6.734;2022-07-05T10:11:01;2.17;;;0.68;;
52304;SDS011;38248;52.722;6.734;2022-07-05T10:14:04;1.27;;;0.50;;
52304;SDS011;38248;52.722;6.734;2022-07-05T10:17:09;1.38;;;1.02;;
52304;SDS011;38248;52.722;6.734;2022-07-05T10:19:37;1.65;;;0.52;;
52304;SDS011;38248;52.722;6.734;2022-07-05T10:22:06;3.97;;;0.65;;
52304;SDS011;38248;52.722;6.734;2022-07-05T10:24:33;3.85;;;0.47;;
52304;SDS011;38248;52.722;6.734;2022-07-05T10:27:01;1.27;;;0.63;;
52304;SDS011;38248;52.722;6.734;2022-07-05T10:29:30;2.05;;;0.47;;
52304;SDS011;38248;52.722;6.734;2022-07-05T10:31:57;2.28;;;0.57;;
52304;SDS011;38248;52.722;6.734;2022-07-05T10:34:24;4.32;;;1.13;;
52304;SDS011;38248;52.722;6.734;2022-07-05T10:36:50;2.97;;;0.85;;
52304;SDS011;38248;52.722;6.734;2022-07-05T10:39:15;2.53;;;0.63;;
52304;SDS011;38248;52.722;6.734;2022-07-05T10:41:41;1.27;;;0.52;;
52304;SDS011;38248;52.722;6.734;2022-07-05T10:44:08;2.13;;;0.50;;
52304;SDS011;38248;52.722;6.734;2022-07-05T10:46:35;1.88;;;0.65;;
52304;SDS011;38248;52.722;6.734;2022-07-05T10:49:12;2.90;;;0.60;;
52304;SDS011;38248;52.722;6.734;2022-07-05T10:51:40;0.90;;;0.50;;
52304;SDS011;38248;52.722;6.734;2022-07-05T10:54:06;1.35;;;0.30;;
52304;SDS011;38248;52.722;6.734;2022-07-05T10:56:32;1.55;;;0.50;;
52304;SDS011;38248;52.722;6.734;2022-07-05T10:59:10;1.77;;;0.60;;
52304;SDS011;38248;52.722;6.734;2022-07-05T11:01:38;1.33;;;0.65;;
52304;SDS011;38248;52.722;6.734;2022-07-05T11:04:18;2.28;;;0.70;;
52304;SDS011;38248;52.722;6.734;2022-07-05T11:06:52;2.95;;;0.70;;
52304;SDS011;38248;52.722;6.734;2022-07-05T11:09:18;2.00;;;0.60;;
52304;SDS011;38248;52.722;6.734;2022-07-05T11:12:06;2.22;;;0.57;;
52304;SDS011;38248;52.722;6.734;2022-07-05T11:14:32;2.28;;;1.08;;
52304;SDS011;38248;52.722;6.734;2022-07-05T11:17:10;2.72;;;0.50;;
52304;SDS011;38248;52.722;6.734;2022-07-05T11:22:36;2.35;;;0.50;;
52304;SDS011;38248;52.722;6.734;2022-07-05T11:25:04;2.58;;;0.88;;
52304;SDS011;38248;52.722;6.734;2022-07-05T11:27:31;3.22;;;0.75;;
52304;SDS011;38248;52.722;6.734;2022-07-05T11:29:58;2.05;;;0.57;;
52304;SDS011;38248;52.722;6.734;2022-07-05T11:35:12;1.38;;;0.50;;
52304;SDS011;38248;52.722;6.734;2022-07-05T11:37:59;1.00;;;0.40;;
52304;SDS011;38248;52.722;6.734;2022-07-05T11:40:31;2.13;;;0.60;;
52304;SDS011;38248;52.722;6.734;2022-07-05T11:42:58;0.55;;;0.30;;
52304;SDS011;38248;52.722;6.734;2022-07-05T11:45:24;1.48;;;0.50;;
52304;SDS011;38248;52.722;6.734;2022-07-05T11:47:54;3.13;;;0.60;;
52304;SDS011;38248;52.722;6.734;2022-07-05T11:50:30;3.40;;;1.08;;
52304;SDS011;38248;52.722;6.734;2022-07-05T11:52:58;2.80;;;0.82;;
52304;SDS011;38248;52.722;6.734;2022-07-05T11:55:26;1.40;;;0.60;;
52304;SDS011;38248;52.722;6.734;2022-07-05T11:57:53;1.65;;;0.40;;
52304;SDS011;38248;52.722;6.734;2022-07-05T12:02:52;0.93;;;0.30;;
52304;SDS011;38248;52.722;6.734;2022-07-05T12:05:18;3.38;;;0.85;;
52304;SDS011;38248;52.722;6.734;2022-07-05T12:07:48;2.25;;;0.60;;
52304;SDS011;38248;52.722;6.734;2022-07-05T12:10:15;3.70;;;0.93;;
52304;SDS011;38248;52.722;6.734;2022-07-05T12:13:08;1.60;;;0.90;;
52304;SDS011;38248;52.722;6.734;2022-07-05T12:15:37;2.70;;;0.50;;
52304;SDS011;38248;52.722;6.734;2022-07-05T12:18:04;1.73;;;0.55;;
52304;SDS011;38248;52.722;6.734;2022-07-05T12:20:37;3.08;;;0.63;;
52304;SDS011;38248;52.722;6.734;2022-07-05T12:23:05;2.45;;;0.82;;
52304;SDS011;38248;52.722;6.734;2022-07-05T12:25:32;1.48;;;0.47;;
52304;SDS011;38248;52.722;6.734;2022-07-05T12:27:59;0.50;;;0.30;;
52304;SDS011;38248;52.722;6.734;2022-07-05T12:30:30;0.88;;;0.40;;
52304;SDS011;38248;52.722;6.734;2022-07-05T12:33:06;1.45;;;0.40;;
52304;SDS011;38248;52.722;6.734;2022-07-05T12:35:41;2.08;;;1.05;;
52304;SDS011;38248;52.722;6.734;2022-07-05T12:38:12;3.00;;;0.80;;
52304;SDS011;38248;52.722;6.734;2022-07-05T12:40:44;3.33;;;0.50;;
52304;SDS011;38248;52.722;6.734;2022-07-05T12:43:31;2.13;;;0.75;;
52304;SDS011;38248;52.722;6.734;2022-07-05T12:46:07;4.93;;;0.47;;
52304;SDS011;38248;52.722;6.734;2022-07-05T12:48:37;0.93;;;0.30;;
52304;SDS011;38248;52.722;6.734;2022-07-05T12:51:04;1.50;;;0.63;;
52304;SDS011;38248;52.722;6.734;2022-07-05T12:53:31;1.90;;;0.25;;
52304;SDS011;38248;52.722;6.734;2022-07-05T12:56:15;1.25;;;0.30;;
52304;SDS011;38248;52.722;6.734;2022-07-05T12:59:03;2.05;;;0.40;;
52304;SDS011;38248;52.722;6.734;2022-07-05T13:01:39;0.77;;;0.30;;
52304;SDS011;38248;52.722;6.734;2022-07-05T13:04:08;1.67;;;0.25;;
52304;SDS011;38248;52.722;6.734;2022-07-05T13:12:13;0.50;;;0.20;;
52304;SDS011;38248;52.722;6.734;2022-07-05T13:14:51;0.80;;;0.20;;
52304;SDS011;38248;52.722;6.734;2022-07-05T13:17:21;2.92;;;0.32;;
52304;SDS011;38248;52.722;6.734;2022-07-05T13:19:48;1.20;;;0.30;;
52304;SDS011;38248;52.722;6.734;2022-07-05T13:22:15;0.80;;;0.40;;
52304;SDS011;38248;52.722;6.734;2022-07-05T13:24:41;0.60;;;0.13;;
52304;SDS011;38248;52.722;6.734;2022-07-05T13:27:07;3.35;;;0.28;;
52304;SDS011;38248;52.722;6.734;2022-07-05T13:29:34;2.05;;;0.38;;
52304;SDS011;38248;52.722;6.734;2022-07-05T13:32:00;0.75;;;0.30;;
52304;SDS011;38248;52.722;6.734;2022-07-05T13:34:26;0.80;;;0.22;;
52304;SDS011;38248;52.722;6.734;2022-07-05T13:36:53;3.17;;;0.60;;
52304;SDS011;38248;52.722;6.734;2022-07-05T13:39:20;1.00;;;0.20;;
52304;SDS011;38248;52.722;6.734;2022-07-05T13:41:50;1.20;;;0.20;;
52304;SDS011;38248;52.722;6.734;2022-07-05T13:44:17;2.03;;;0.40;;
52304;SDS011;38248;52.722;6.734;2022-07-05T13:46:43;1.15;;;0.20;;
52304;SDS011;38248;52.722;6.734;2022-07-05T13:49:10;1.13;;;0.40;;
52304;SDS011;38248;52.722;6.734;2022-07-05T13:51:35;2.60;;;0.40;;
52304;SDS011;38248;52.722;6.734;2022-07-05T13:54:02;1.92;;;0.47;;
52304;SDS011;38248;52.722;6.734;2022-07-05T13:56:27;1.38;;;0.28;;
52304;SDS011;38248;52.722;6.734;2022-07-05T13:58:53;0.50;;;0.22;;
52304;SDS011;38248;52.722;6.734;2022-07-05T14:01:20;2.85;;;0.32;;
52304;SDS011;38248;52.722;6.734;2022-07-05T14:03:51;0.50;;;0.20;;
52304;SDS011;38248;52.722;6.734;2022-07-05T14:06:20;0.95;;;0.30;;
52304;SDS011;38248;52.722;6.734;2022-07-05T14:08:45;2.15;;;0.30;;
52304;SDS011;38248;52.722;6.734;2022-07-05T14:11:11;1.50;;;0.30;;
52304;SDS011;38248;52.722;6.734;2022-07-05T14:13:38;2.15;;;0.30;;
52304;SDS011;38248;52.722;6.734;2022-07-05T14:16:04;1.77;;;0.32;;
52304;SDS011;38248;52.722;6.734;2022-07-05T14:18:30;2.03;;;0.30;;
52304;SDS011;38248;52.722;6.734;2022-07-05T14:20:55;3.13;;;0.40;;
52304;SDS011;38248;52.722;6.734;2022-07-05T14:23:21;2.63;;;0.40;;
52304;SDS011;38248;52.722;6.734;2022-07-05T14:25:47;0.57;;;0.30;;
52304;SDS011;38248;52.722;6.734;2022-07-05T14:28:13;2.15;;;0.52;;
52304;SDS011;38248;52.722;6.734;2022-07-05T14:30:41;1.45;;;0.35;;
52304;SDS011;38248;52.722;6.734;2022-07-05T14:33:09;1.23;;;0.25;;
52304;SDS011;38248;52.722;6.734;2022-07-05T14:35:36;1.85;;;0.30;;
52304;SDS011;38248;52.722;6.734;2022-07-05T14:38:05;1.20;;;0.30;;
52304;SDS011;38248;52.722;6.734;2022-07-05T14:40:31;0.75;;;0.17;;
52304;SDS011;38248;52.722;6.734;2022-07-05T14:42:58;1.10;;;0.63;;
52304;SDS011;38248;52.722;6.734;2022-07-05T14:45:24;2.75;;;0.40;;
52304;SDS011;38248;52.722;6.734;2022-07-05T14:47:51;2.58;;;0.38;;
52304;SDS011;38248;52.722;6.734;2022-07-05T14:50:17;0.68;;;0.52;;
52304;SDS011;38248;52.722;6.734;2022-07-05T14:52:45;0.93;;;0.20;;
52304;SDS011;38248;52.722;6.734;2022-07-05T14:55:12;0.60;;;0.28;;
52304;SDS011;38248;52.722;6.734;2022-07-05T14:57:41;3.13;;;0.70;;
52304;SDS011;38248;52.722;6.734;2022-07-05T15:00:08;1.55;;;0.25;;
52304;SDS011;38248;52.722;6.734;2022-07-05T15:02:36;0.95;;;0.52;;
52304;SDS011;38248;52.722;6.734;2022-07-05T15:05:02;2.80;;;0.40;;
52304;SDS011;38248;52.722;6.734;2022-07-05T15:07:29;2.35;;;0.30;;
52304;SDS011;38248;52.722;6.734;2022-07-05T15:09:55;1.42;;;0.47;;
52304;SDS011;38248;52.722;6.734;2022-07-05T15:12:20;0.75;;;0.40;;
52304;SDS011;38248;52.722;6.734;2022-07-05T15:14:46;2.70;;;0.35;;
52304;SDS011;38248;52.722;6.734;2022-07-05T15:17:15;2.80;;;0.40;;
52304;SDS011;38248;52.722;6.734;2022-07-05T15:19:41;1.88;;;0.40;;
52304;SDS011;38248;52.722;6.734;2022-07-05T15:22:07;0.82;;;0.25;;
52304;SDS011;38248;52.722;6.734;2022-07-05T15:24:35;2.60;;;0.20;;
52304;SDS011;38248;52.722;6.734;2022-07-05T15:27:00;1.05;;;0.25;;
52304;SDS011;38248;52.722;6.734;2022-07-05T15:29:26;2.55;;;0.30;;
52304;SDS011;38248;52.722;6.734;2022-07-05T15:31:53;0.70;;;0.40;;